sensor_id;sensor_type;location;lat;lon;timestamp;P1;durP1;ratioP1;P2;durP2;ratioP2
76540;SDS011;65385;55.772;37.658;2023-09-12T00:00:51;33.42;;;16.17;;
76540;SDS011;65385;55.772;37.658;2023-09-12T00:01:51;32.35;;;17.08;;
76540;SDS011;65385;55.772;37.658;2023-09-12T00:02:52;33.97;;;16.13;;
76540;SDS011;65385;55.772;37.658;2023-09-12T00:03:52;34.22;;;15.55;;
76540;SDS011;65385;55.772;37.658;2023-09-12T00:04:53;35.45;;;16.17;;
76540;SDS011;65385;55.772;37.658;2023-09-12T00:05:54;33.08;;;17.17;;
76540;SDS011;65385;55.772;37.658;2023-09-12T00:06:55;36.35;;;16.35;;
76540;SDS011;65385;55.772;37.658;2023-09-12T00:07:56;36.33;;;16.20;;
76540;SDS011;65385;55.772;37.658;2023-09-12T00:08:57;31.75;;;16.25;;
76540;SDS011;65385;55.772;37.658;2023-09-12T00:09:57;33.25;;;15.70;;
76540;SDS011;65385;55.772;37.658;2023-09-12T00:10:59;34.05;;;15.73;;
76540;SDS011;65385;55.772;37.658;2023-09-12T00:12:03;33.70;;;15.88;;
76540;SDS011;65385;55.772;37.658;2023-09-12T00:13:04;35.03;;;15.90;;
76540;SDS011;65385;55.772;37.658;2023-09-12T00:14:05;34.75;;;16.02;;
76540;SDS011;65385;55.772;37.658;2023-09-12T00:15:08;34.15;;;16.13;;
76540;SDS011;65385;55.772;37.658;2023-09-12T00:16:09;31.40;;;16.05;;
76540;SDS011;65385;55.772;37.658;2023-09-12T00:17:11;37.42;;;15.20;;
76540;SDS011;65385;55.772;37.658;2023-09-12T00:18:11;31.65;;;15.85;;
76540;SDS011;65385;55.772;37.658;2023-09-12T00:19:12;32.53;;;15.63;;
76540;SDS011;65385;55.772;37.658;2023-09-12T00:20:13;32.65;;;15.38;;
76540;SDS011;65385;55.772;37.658;2023-09-12T00:21:13;32.13;;;15.90;;
76540;SDS011;65385;55.772;37.658;2023-09-12T00:22:14;32.90;;;16.02;;
76540;SDS011;65385;55.772;37.658;2023-09-12T00:23:15;35.25;;;15.88;;
76540;SDS011;65385;55.772;37.658;2023-09-12T00:24:15;32.00;;;15.25;;
76540;SDS011;65385;55.772;37.658;2023-09-12T00:25:16;34.92;;;16.10;;
76540;SDS011;65385;55.772;37.658;2023-09-12T00:26:17;33.20;;;15.40;;
76540;SDS011;65385;55.772;37.658;2023-09-12T00:27:18;34.72;;;15.05;;
76540;SDS011;65385;55.772;37.658;2023-09-12T00:28:19;34.55;;;16.30;;
76540;SDS011;65385;55.772;37.658;2023-09-12T00:29:20;34.15;;;16.02;;
76540;SDS011;65385;55.772;37.658;2023-09-12T00:30:21;37.65;;;15.70;;
76540;SDS011;65385;55.772;37.658;2023-09-12T00:31:21;34.45;;;15.57;;
76540;SDS011;65385;55.772;37.658;2023-09-12T00:32:22;36.10;;;15.95;;
76540;SDS011;65385;55.772;37.658;2023-09-12T00:33:23;32.33;;;15.63;;
76540;SDS011;65385;55.772;37.658;2023-09-12T00:34:23;38.97;;;17.60;;
76540;SDS011;65385;55.772;37.658;2023-09-12T00:35:24;33.63;;;17.42;;
76540;SDS011;65385;55.772;37.658;2023-09-12T00:36:25;30.38;;;15.00;;
76540;SDS011;65385;55.772;37.658;2023-09-12T00:37:25;35.78;;;16.58;;
76540;SDS011;65385;55.772;37.658;2023-09-12T00:38:26;37.08;;;15.23;;
76540;SDS011;65385;55.772;37.658;2023-09-12T00:39:27;37.42;;;15.48;;
76540;SDS011;65385;55.772;37.658;2023-09-12T00:40:28;33.38;;;15.93;;
76540;SDS011;65385;55.772;37.658;2023-09-12T00:41:29;33.92;;;16.10;;
76540;SDS011;65385;55.772;37.658;2023-09-12T00:42:29;35.03;;;16.27;;
76540;SDS011;65385;55.772;37.658;2023-09-12T00:43:30;35.28;;;16.52;;
76540;SDS011;65385;55.772;37.658;2023-09-12T00:44:30;34.83;;;15.32;;
76540;SDS011;65385;55.772;37.658;2023-09-12T00:45:31;34.28;;;16.48;;
76540;SDS011;65385;55.772;37.658;2023-09-12T00:46:31;34.28;;;16.67;;
76540;SDS011;65385;55.772;37.658;2023-09-12T00:47:33;38.15;;;16.55;;
76540;SDS011;65385;55.772;37.658;2023-09-12T00:48:33;38.42;;;17.42;;
76540;SDS011;65385;55.772;37.658;2023-09-12T00:49:35;35.72;;;16.38;;
76540;SDS011;65385;55.772;37.658;2023-09-12T00:50:37;38.13;;;17.63;;
76540;SDS011;65385;55.772;37.658;2023-09-12T00:51:38;37.63;;;16.48;;
76540;SDS011;65385;55.772;37.658;2023-09-12T00:52:39;34.35;;;16.65;;
76540;SDS011;65385;55.772;37.658;2023-09-12T00:53:41;33.35;;;15.75;;
76540;SDS011;65385;55.772;37.658;2023-09-12T00:54:42;37.35;;;16.63;;
76540;SDS011;65385;55.772;37.658;2023-09-12T00:55:45;33.85;;;16.45;;
76540;SDS011;65385;55.772;37.658;2023-09-12T00:56:49;34.42;;;16.23;;
76540;SDS011;65385;55.772;37.658;2023-09-12T00:57:50;34.65;;;18.20;;
76540;SDS011;65385;55.772;37.658;2023-09-12T00:58:51;36.30;;;17.60;;
76540;SDS011;65385;55.772;37.658;2023-09-12T00:59:53;32.78;;;16.67;;
76540;SDS011;65385;55.772;37.658;2023-09-12T01:00:53;36.45;;;17.80;;
76540;SDS011;65385;55.772;37.658;2023-09-12T01:01:54;38.13;;;17.08;;
76540;SDS011;65385;55.772;37.658;2023-09-12T01:02:55;37.88;;;17.63;;
76540;SDS011;65385;55.772;37.658;2023-09-12T01:03:57;36.10;;;18.13;;
76540;SDS011;65385;55.772;37.658;2023-09-12T01:04:57;36.05;;;17.23;;
76540;SDS011;65385;55.772;37.658;2023-09-12T01:05:58;31.50;;;16.63;;
76540;SDS011;65385;55.772;37.658;2023-09-12T01:07:00;40.28;;;18.77;;
76540;SDS011;65385;55.772;37.658;2023-09-12T01:08:00;39.13;;;18.33;;
76540;SDS011;65385;55.772;37.658;2023-09-12T01:09:01;39.83;;;18.33;;
76540;SDS011;65385;55.772;37.658;2023-09-12T01:10:02;36.08;;;15.63;;
76540;SDS011;65385;55.772;37.658;2023-09-12T01:11:04;36.70;;;17.30;;
76540;SDS011;65385;55.772;37.658;2023-09-12T01:12:05;34.53;;;17.02;;
76540;SDS011;65385;55.772;37.658;2023-09-12T01:13:06;35.50;;;16.13;;
76540;SDS011;65385;55.772;37.658;2023-09-12T01:14:06;38.97;;;19.08;;
76540;SDS011;65385;55.772;37.658;2023-09-12T01:15:07;37.00;;;16.30;;
76540;SDS011;65385;55.772;37.658;2023-09-12T01:16:14;35.38;;;16.55;;
76540;SDS011;65385;55.772;37.658;2023-09-12T01:17:14;34.30;;;18.00;;
76540;SDS011;65385;55.772;37.658;2023-09-12T01:18:15;38.20;;;17.67;;
76540;SDS011;65385;55.772;37.658;2023-09-12T01:19:16;35.88;;;16.35;;
76540;SDS011;65385;55.772;37.658;2023-09-12T01:20:24;41.58;;;17.50;;
76540;SDS011;65385;55.772;37.658;2023-09-12T01:27:55;38.47;;;17.42;;
76540;SDS011;65385;55.772;37.658;2023-09-12T01:29:00;39.78;;;18.10;;
76540;SDS011;65385;55.772;37.658;2023-09-12T01:30:03;38.55;;;18.20;;
76540;SDS011;65385;55.772;37.658;2023-09-12T01:32:06;37.47;;;17.35;;
76540;SDS011;65385;55.772;37.658;2023-09-12T01:33:09;42.75;;;18.38;;
76540;SDS011;65385;55.772;37.658;2023-09-12T01:34:10;41.45;;;18.88;;
76540;SDS011;65385;55.772;37.658;2023-09-12T01:35:11;37.30;;;17.90;;
76540;SDS011;65385;55.772;37.658;2023-09-12T01:36:12;38.65;;;18.13;;
76540;SDS011;65385;55.772;37.658;2023-09-12T01:37:12;38.58;;;17.58;;
76540;SDS011;65385;55.772;37.658;2023-09-12T01:38:13;42.22;;;19.60;;
76540;SDS011;65385;55.772;37.658;2023-09-12T01:39:15;41.47;;;17.90;;
76540;SDS011;65385;55.772;37.658;2023-09-12T01:40:15;42.53;;;19.20;;
76540;SDS011;65385;55.772;37.658;2023-09-12T01:41:18;42.47;;;18.85;;
76540;SDS011;65385;55.772;37.658;2023-09-12T01:42:20;40.05;;;18.33;;
76540;SDS011;65385;55.772;37.658;2023-09-12T01:43:22;43.53;;;19.55;;
76540;SDS011;65385;55.772;37.658;2023-09-12T01:44:25;44.58;;;19.25;;
76540;SDS011;65385;55.772;37.658;2023-09-12T01:45:28;41.90;;;19.08;;
76540;SDS011;65385;55.772;37.658;2023-09-12T01:46:29;41.38;;;18.80;;
76540;SDS011;65385;55.772;37.658;2023-09-12T01:47:31;41.42;;;19.08;;
76540;SDS011;65385;55.772;37.658;2023-09-12T01:48:34;40.47;;;18.63;;
76540;SDS011;65385;55.772;37.658;2023-09-12T01:49:37;45.00;;;19.83;;
76540;SDS011;65385;55.772;37.658;2023-09-12T01:50:42;44.42;;;19.88;;
76540;SDS011;65385;55.772;37.658;2023-09-12T01:51:43;42.03;;;18.50;;
76540;SDS011;65385;55.772;37.658;2023-09-12T01:52:43;46.58;;;18.55;;
76540;SDS011;65385;55.772;37.658;2023-09-12T01:53:44;42.45;;;18.55;;
76540;SDS011;65385;55.772;37.658;2023-09-12T01:54:46;42.25;;;20.13;;
76540;SDS011;65385;55.772;37.658;2023-09-12T01:55:49;44.53;;;19.33;;
76540;SDS011;65385;55.772;37.658;2023-09-12T01:56:50;44.55;;;19.15;;
76540;SDS011;65385;55.772;37.658;2023-09-12T01:57:51;42.28;;;18.85;;
76540;SDS011;65385;55.772;37.658;2023-09-12T01:58:52;43.63;;;18.63;;
76540;SDS011;65385;55.772;37.658;2023-09-12T01:59:53;44.90;;;18.83;;
76540;SDS011;65385;55.772;37.658;2023-09-12T02:00:53;40.70;;;19.30;;
76540;SDS011;65385;55.772;37.658;2023-09-12T02:01:56;38.63;;;18.13;;
76540;SDS011;65385;55.772;37.658;2023-09-12T02:02:56;38.53;;;18.42;;
76540;SDS011;65385;55.772;37.658;2023-09-12T02:03:57;46.03;;;19.60;;
76540;SDS011;65385;55.772;37.658;2023-09-12T02:06:21;42.60;;;18.38;;
76540;SDS011;65385;55.772;37.658;2023-09-12T02:07:22;43.25;;;19.35;;
76540;SDS011;65385;55.772;37.658;2023-09-12T02:08:24;43.45;;;17.63;;
76540;SDS011;65385;55.772;37.658;2023-09-12T02:09:25;40.78;;;20.63;;
76540;SDS011;65385;55.772;37.658;2023-09-12T02:10:26;47.72;;;19.05;;
76540;SDS011;65385;55.772;37.658;2023-09-12T02:11:27;42.25;;;19.42;;
76540;SDS011;65385;55.772;37.658;2023-09-12T02:12:29;44.90;;;20.05;;
76540;SDS011;65385;55.772;37.658;2023-09-12T02:13:31;45.22;;;20.98;;
76540;SDS011;65385;55.772;37.658;2023-09-12T02:14:31;47.17;;;20.23;;
76540;SDS011;65385;55.772;37.658;2023-09-12T02:15:32;42.53;;;18.08;;
76540;SDS011;65385;55.772;37.658;2023-09-12T02:16:35;40.85;;;19.52;;
76540;SDS011;65385;55.772;37.658;2023-09-12T02:17:37;40.03;;;20.17;;
76540;SDS011;65385;55.772;37.658;2023-09-12T02:18:59;42.63;;;19.50;;
76540;SDS011;65385;55.772;37.658;2023-09-12T02:19:59;46.88;;;20.17;;
76540;SDS011;65385;55.772;37.658;2023-09-12T02:21:00;44.58;;;18.85;;
76540;SDS011;65385;55.772;37.658;2023-09-12T02:22:00;43.90;;;19.02;;
76540;SDS011;65385;55.772;37.658;2023-09-12T02:23:01;42.47;;;19.02;;
76540;SDS011;65385;55.772;37.658;2023-09-12T02:24:02;42.58;;;18.33;;
76540;SDS011;65385;55.772;37.658;2023-09-12T02:25:05;44.85;;;19.85;;
76540;SDS011;65385;55.772;37.658;2023-09-12T02:26:06;49.08;;;20.13;;
76540;SDS011;65385;55.772;37.658;2023-09-12T02:27:07;45.00;;;19.77;;
76540;SDS011;65385;55.772;37.658;2023-09-12T02:28:08;46.42;;;19.48;;
76540;SDS011;65385;55.772;37.658;2023-09-12T02:29:08;48.17;;;20.58;;
76540;SDS011;65385;55.772;37.658;2023-09-12T02:30:10;42.33;;;19.95;;
76540;SDS011;65385;55.772;37.658;2023-09-12T02:31:10;41.83;;;19.27;;
76540;SDS011;65385;55.772;37.658;2023-09-12T02:32:14;47.22;;;19.70;;
76540;SDS011;65385;55.772;37.658;2023-09-12T02:33:15;47.88;;;20.92;;
76540;SDS011;65385;55.772;37.658;2023-09-12T02:34:15;44.45;;;20.13;;
76540;SDS011;65385;55.772;37.658;2023-09-12T02:35:16;51.90;;;20.98;;
76540;SDS011;65385;55.772;37.658;2023-09-12T02:36:17;42.72;;;18.80;;
76540;SDS011;65385;55.772;37.658;2023-09-12T02:37:17;50.03;;;20.98;;
76540;SDS011;65385;55.772;37.658;2023-09-12T02:38:18;42.42;;;20.13;;
76540;SDS011;65385;55.772;37.658;2023-09-12T02:39:18;45.97;;;21.30;;
76540;SDS011;65385;55.772;37.658;2023-09-12T02:40:19;44.65;;;20.85;;
76540;SDS011;65385;55.772;37.658;2023-09-12T02:41:20;44.40;;;20.23;;
76540;SDS011;65385;55.772;37.658;2023-09-12T02:42:20;49.40;;;20.55;;
76540;SDS011;65385;55.772;37.658;2023-09-12T02:43:21;45.70;;;19.02;;
76540;SDS011;65385;55.772;37.658;2023-09-12T02:44:22;48.60;;;21.27;;
76540;SDS011;65385;55.772;37.658;2023-09-12T02:45:22;45.75;;;20.98;;
76540;SDS011;65385;55.772;37.658;2023-09-12T02:46:23;44.90;;;21.33;;
76540;SDS011;65385;55.772;37.658;2023-09-12T02:47:23;45.10;;;21.08;;
76540;SDS011;65385;55.772;37.658;2023-09-12T02:48:24;44.50;;;20.02;;
76540;SDS011;65385;55.772;37.658;2023-09-12T02:49:25;44.75;;;21.20;;
76540;SDS011;65385;55.772;37.658;2023-09-12T02:50:26;47.83;;;19.92;;
76540;SDS011;65385;55.772;37.658;2023-09-12T02:51:26;45.45;;;18.95;;
76540;SDS011;65385;55.772;37.658;2023-09-12T02:52:28;43.88;;;22.05;;
76540;SDS011;65385;55.772;37.658;2023-09-12T02:53:29;47.03;;;20.50;;
76540;SDS011;65385;55.772;37.658;2023-09-12T02:54:29;42.13;;;20.10;;
76540;SDS011;65385;55.772;37.658;2023-09-12T02:55:30;45.20;;;20.92;;
76540;SDS011;65385;55.772;37.658;2023-09-12T02:56:31;48.63;;;22.13;;
76540;SDS011;65385;55.772;37.658;2023-09-12T02:57:31;43.25;;;19.92;;
76540;SDS011;65385;55.772;37.658;2023-09-12T02:58:32;50.35;;;22.08;;
76540;SDS011;65385;55.772;37.658;2023-09-12T02:59:32;47.72;;;20.08;;
76540;SDS011;65385;55.772;37.658;2023-09-12T03:00:37;48.05;;;19.83;;
76540;SDS011;65385;55.772;37.658;2023-09-12T03:01:38;50.33;;;22.05;;
76540;SDS011;65385;55.772;37.658;2023-09-12T03:02:38;52.15;;;21.73;;
76540;SDS011;65385;55.772;37.658;2023-09-12T03:03:39;41.80;;;19.45;;
76540;SDS011;65385;55.772;37.658;2023-09-12T03:04:40;49.03;;;21.55;;
76540;SDS011;65385;55.772;37.658;2023-09-12T03:05:40;45.15;;;19.75;;
76540;SDS011;65385;55.772;37.658;2023-09-12T03:06:41;47.78;;;19.27;;
76540;SDS011;65385;55.772;37.658;2023-09-12T03:07:41;47.90;;;19.88;;
76540;SDS011;65385;55.772;37.658;2023-09-12T03:08:43;46.47;;;20.02;;
76540;SDS011;65385;55.772;37.658;2023-09-12T03:09:43;41.00;;;20.27;;
76540;SDS011;65385;55.772;37.658;2023-09-12T03:10:44;44.30;;;17.83;;
76540;SDS011;65385;55.772;37.658;2023-09-12T03:11:44;47.05;;;21.25;;
76540;SDS011;65385;55.772;37.658;2023-09-12T03:12:45;41.45;;;18.08;;
76540;SDS011;65385;55.772;37.658;2023-09-12T03:13:46;46.28;;;18.85;;
76540;SDS011;65385;55.772;37.658;2023-09-12T03:14:46;41.53;;;18.33;;
76540;SDS011;65385;55.772;37.658;2023-09-12T03:15:47;40.72;;;19.65;;
76540;SDS011;65385;55.772;37.658;2023-09-12T03:16:48;38.47;;;17.25;;
76540;SDS011;65385;55.772;37.658;2023-09-12T03:17:48;38.85;;;17.80;;
76540;SDS011;65385;55.772;37.658;2023-09-12T03:18:49;36.65;;;16.80;;
76540;SDS011;65385;55.772;37.658;2023-09-12T03:19:50;36.97;;;17.33;;
76540;SDS011;65385;55.772;37.658;2023-09-12T03:20:50;41.53;;;18.25;;
76540;SDS011;65385;55.772;37.658;2023-09-12T03:21:51;37.17;;;18.83;;
76540;SDS011;65385;55.772;37.658;2023-09-12T03:22:52;37.30;;;16.40;;
76540;SDS011;65385;55.772;37.658;2023-09-12T03:23:53;37.33;;;17.08;;
76540;SDS011;65385;55.772;37.658;2023-09-12T03:24:53;31.58;;;15.93;;
76540;SDS011;65385;55.772;37.658;2023-09-12T03:25:54;32.92;;;16.67;;
76540;SDS011;65385;55.772;37.658;2023-09-12T03:26:55;35.70;;;16.83;;
76540;SDS011;65385;55.772;37.658;2023-09-12T03:27:55;29.85;;;15.45;;
76540;SDS011;65385;55.772;37.658;2023-09-12T03:28:56;31.00;;;17.42;;
76540;SDS011;65385;55.772;37.658;2023-09-12T03:29:56;31.40;;;14.63;;
76540;SDS011;65385;55.772;37.658;2023-09-12T03:31:07;33.25;;;16.55;;
76540;SDS011;65385;55.772;37.658;2023-09-12T03:32:12;35.47;;;16.33;;
76540;SDS011;65385;55.772;37.658;2023-09-12T03:33:13;29.15;;;15.35;;
76540;SDS011;65385;55.772;37.658;2023-09-12T03:34:13;33.05;;;16.75;;
76540;SDS011;65385;55.772;37.658;2023-09-12T03:35:14;41.17;;;15.85;;
76540;SDS011;65385;55.772;37.658;2023-09-12T03:36:15;32.25;;;16.15;;
76540;SDS011;65385;55.772;37.658;2023-09-12T03:37:17;31.88;;;15.88;;
76540;SDS011;65385;55.772;37.658;2023-09-12T03:38:17;28.45;;;15.82;;
76540;SDS011;65385;55.772;37.658;2023-09-12T03:39:18;32.42;;;15.20;;
76540;SDS011;65385;55.772;37.658;2023-09-12T03:40:19;34.42;;;15.40;;
76540;SDS011;65385;55.772;37.658;2023-09-12T03:41:19;33.97;;;15.88;;
76540;SDS011;65385;55.772;37.658;2023-09-12T03:42:25;30.42;;;16.67;;
76540;SDS011;65385;55.772;37.658;2023-09-12T03:43:25;29.33;;;14.45;;
76540;SDS011;65385;55.772;37.658;2023-09-12T03:44:26;30.17;;;15.38;;
76540;SDS011;65385;55.772;37.658;2023-09-12T03:45:27;29.17;;;15.38;;
76540;SDS011;65385;55.772;37.658;2023-09-12T03:46:27;28.60;;;14.55;;
76540;SDS011;65385;55.772;37.658;2023-09-12T03:47:28;31.13;;;15.88;;
76540;SDS011;65385;55.772;37.658;2023-09-12T03:48:29;28.95;;;13.95;;
76540;SDS011;65385;55.772;37.658;2023-09-12T03:49:33;28.17;;;14.00;;
76540;SDS011;65385;55.772;37.658;2023-09-12T03:50:33;28.70;;;14.93;;
76540;SDS011;65385;55.772;37.658;2023-09-12T03:51:34;29.20;;;14.15;;
76540;SDS011;65385;55.772;37.658;2023-09-12T03:52:35;28.50;;;14.90;;
76540;SDS011;65385;55.772;37.658;2023-09-12T03:53:36;30.73;;;14.93;;
76540;SDS011;65385;55.772;37.658;2023-09-12T03:54:36;28.63;;;14.85;;
76540;SDS011;65385;55.772;37.658;2023-09-12T03:55:37;27.40;;;14.05;;
76540;SDS011;65385;55.772;37.658;2023-09-12T03:56:37;26.88;;;13.77;;
76540;SDS011;65385;55.772;37.658;2023-09-12T03:57:38;25.95;;;14.70;;
76540;SDS011;65385;55.772;37.658;2023-09-12T03:58:39;28.50;;;14.50;;
76540;SDS011;65385;55.772;37.658;2023-09-12T03:59:40;28.88;;;15.10;;
76540;SDS011;65385;55.772;37.658;2023-09-12T04:00:41;26.90;;;15.15;;
76540;SDS011;65385;55.772;37.658;2023-09-12T04:01:41;25.90;;;14.02;;
76540;SDS011;65385;55.772;37.658;2023-09-12T04:02:42;29.50;;;15.52;;
76540;SDS011;65385;55.772;37.658;2023-09-12T04:03:43;32.90;;;15.13;;
76540;SDS011;65385;55.772;37.658;2023-09-12T04:04:44;30.02;;;15.10;;
76540;SDS011;65385;55.772;37.658;2023-09-12T04:05:45;27.17;;;13.70;;
76540;SDS011;65385;55.772;37.658;2023-09-12T04:06:47;28.42;;;14.98;;
76540;SDS011;65385;55.772;37.658;2023-09-12T04:07:47;26.80;;;15.38;;
76540;SDS011;65385;55.772;37.658;2023-09-12T04:08:49;26.38;;;14.27;;
76540;SDS011;65385;55.772;37.658;2023-09-12T04:09:49;25.85;;;13.55;;
76540;SDS011;65385;55.772;37.658;2023-09-12T04:10:50;30.50;;;14.55;;
76540;SDS011;65385;55.772;37.658;2023-09-12T04:11:50;27.98;;;13.73;;
76540;SDS011;65385;55.772;37.658;2023-09-12T04:12:51;25.25;;;14.27;;
76540;SDS011;65385;55.772;37.658;2023-09-12T04:13:51;29.02;;;15.27;;
76540;SDS011;65385;55.772;37.658;2023-09-12T04:14:52;25.77;;;14.88;;
76540;SDS011;65385;55.772;37.658;2023-09-12T04:15:53;26.08;;;15.07;;
76540;SDS011;65385;55.772;37.658;2023-09-12T04:16:54;26.92;;;14.68;;
76540;SDS011;65385;55.772;37.658;2023-09-12T04:17:54;27.95;;;14.40;;
76540;SDS011;65385;55.772;37.658;2023-09-12T04:18:55;24.08;;;13.85;;
76540;SDS011;65385;55.772;37.658;2023-09-12T04:19:55;26.00;;;14.70;;
76540;SDS011;65385;55.772;37.658;2023-09-12T04:20:56;29.10;;;15.50;;
76540;SDS011;65385;55.772;37.658;2023-09-12T04:21:57;30.25;;;14.95;;
76540;SDS011;65385;55.772;37.658;2023-09-12T04:23:00;25.90;;;14.70;;
76540;SDS011;65385;55.772;37.658;2023-09-12T04:25:03;24.23;;;12.88;;
76540;SDS011;65385;55.772;37.658;2023-09-12T04:26:05;27.73;;;15.57;;
76540;SDS011;65385;55.772;37.658;2023-09-12T04:27:06;27.58;;;14.85;;
76540;SDS011;65385;55.772;37.658;2023-09-12T04:28:07;26.23;;;14.18;;
76540;SDS011;65385;55.772;37.658;2023-09-12T04:29:08;24.10;;;14.13;;
76540;SDS011;65385;55.772;37.658;2023-09-12T04:30:08;26.92;;;15.05;;
76540;SDS011;65385;55.772;37.658;2023-09-12T04:31:09;28.73;;;15.48;;
76540;SDS011;65385;55.772;37.658;2023-09-12T04:32:10;24.58;;;14.18;;
76540;SDS011;65385;55.772;37.658;2023-09-12T04:33:11;26.52;;;15.55;;
76540;SDS011;65385;55.772;37.658;2023-09-12T04:34:12;29.92;;;14.57;;
76540;SDS011;65385;55.772;37.658;2023-09-12T04:35:13;24.95;;;13.70;;
76540;SDS011;65385;55.772;37.658;2023-09-12T04:36:14;25.52;;;14.70;;
76540;SDS011;65385;55.772;37.658;2023-09-12T04:37:14;25.45;;;14.18;;
76540;SDS011;65385;55.772;37.658;2023-09-12T04:38:15;26.50;;;15.05;;
76540;SDS011;65385;55.772;37.658;2023-09-12T04:39:15;27.10;;;15.48;;
76540;SDS011;65385;55.772;37.658;2023-09-12T04:40:16;26.33;;;14.85;;
76540;SDS011;65385;55.772;37.658;2023-09-12T04:41:17;25.25;;;15.75;;
76540;SDS011;65385;55.772;37.658;2023-09-12T04:42:17;24.85;;;14.48;;
76540;SDS011;65385;55.772;37.658;2023-09-12T04:43:18;23.83;;;13.82;;
76540;SDS011;65385;55.772;37.658;2023-09-12T04:44:18;25.92;;;14.75;;
76540;SDS011;65385;55.772;37.658;2023-09-12T04:45:19;25.25;;;15.63;;
76540;SDS011;65385;55.772;37.658;2023-09-12T04:46:19;25.67;;;14.57;;
76540;SDS011;65385;55.772;37.658;2023-09-12T04:47:20;26.75;;;15.70;;
76540;SDS011;65385;55.772;37.658;2023-09-12T04:48:21;26.00;;;14.68;;
76540;SDS011;65385;55.772;37.658;2023-09-12T04:49:22;27.55;;;15.68;;
76540;SDS011;65385;55.772;37.658;2023-09-12T04:50:22;25.85;;;14.55;;
76540;SDS011;65385;55.772;37.658;2023-09-12T04:51:23;24.23;;;14.10;;
76540;SDS011;65385;55.772;37.658;2023-09-12T04:52:24;24.90;;;15.13;;
76540;SDS011;65385;55.772;37.658;2023-09-12T04:53:25;23.48;;;14.52;;
76540;SDS011;65385;55.772;37.658;2023-09-12T04:54:26;25.98;;;15.27;;
76540;SDS011;65385;55.772;37.658;2023-09-12T04:55:26;25.58;;;15.88;;
76540;SDS011;65385;55.772;37.658;2023-09-12T04:56:27;23.02;;;13.52;;
76540;SDS011;65385;55.772;37.658;2023-09-12T04:57:27;22.80;;;14.00;;
76540;SDS011;65385;55.772;37.658;2023-09-12T04:58:31;26.30;;;14.60;;
76540;SDS011;65385;55.772;37.658;2023-09-12T04:59:32;24.48;;;14.68;;
76540;SDS011;65385;55.772;37.658;2023-09-12T05:00:33;25.40;;;15.45;;
76540;SDS011;65385;55.772;37.658;2023-09-12T05:01:33;25.45;;;16.35;;
76540;SDS011;65385;55.772;37.658;2023-09-12T05:02:34;29.67;;;16.63;;
76540;SDS011;65385;55.772;37.658;2023-09-12T05:03:35;28.10;;;16.80;;
76540;SDS011;65385;55.772;37.658;2023-09-12T05:04:36;26.13;;;15.75;;
76540;SDS011;65385;55.772;37.658;2023-09-12T05:05:36;26.83;;;16.00;;
76540;SDS011;65385;55.772;37.658;2023-09-12T05:06:37;28.13;;;15.40;;
76540;SDS011;65385;55.772;37.658;2023-09-12T05:07:38;28.50;;;16.50;;
76540;SDS011;65385;55.772;37.658;2023-09-12T05:08:39;27.13;;;16.17;;
76540;SDS011;65385;55.772;37.658;2023-09-12T05:09:39;25.95;;;15.98;;
76540;SDS011;65385;55.772;37.658;2023-09-12T05:10:40;26.52;;;16.52;;
76540;SDS011;65385;55.772;37.658;2023-09-12T05:11:41;25.90;;;14.68;;
76540;SDS011;65385;55.772;37.658;2023-09-12T05:12:41;30.80;;;16.85;;
76540;SDS011;65385;55.772;37.658;2023-09-12T05:13:42;25.60;;;14.13;;
76540;SDS011;65385;55.772;37.658;2023-09-12T05:14:42;26.55;;;15.95;;
76540;SDS011;65385;55.772;37.658;2023-09-12T05:15:43;23.80;;;14.45;;
76540;SDS011;65385;55.772;37.658;2023-09-12T05:16:43;24.05;;;14.93;;
76540;SDS011;65385;55.772;37.658;2023-09-12T05:17:44;23.85;;;15.18;;
76540;SDS011;65385;55.772;37.658;2023-09-12T05:18:45;28.73;;;16.15;;
76540;SDS011;65385;55.772;37.658;2023-09-12T05:19:45;26.10;;;14.70;;
76540;SDS011;65385;55.772;37.658;2023-09-12T05:20:46;23.60;;;14.15;;
76540;SDS011;65385;55.772;37.658;2023-09-12T05:21:47;28.10;;;15.50;;
76540;SDS011;65385;55.772;37.658;2023-09-12T05:22:47;24.92;;;14.25;;
76540;SDS011;65385;55.772;37.658;2023-09-12T05:23:48;24.83;;;15.38;;
76540;SDS011;65385;55.772;37.658;2023-09-12T05:24:48;23.02;;;15.38;;
76540;SDS011;65385;55.772;37.658;2023-09-12T05:25:49;25.55;;;15.10;;
76540;SDS011;65385;55.772;37.658;2023-09-12T05:26:50;24.23;;;14.40;;
76540;SDS011;65385;55.772;37.658;2023-09-12T05:27:51;25.42;;;15.18;;
76540;SDS011;65385;55.772;37.658;2023-09-12T05:28:52;22.98;;;14.20;;
76540;SDS011;65385;55.772;37.658;2023-09-12T05:29:53;21.90;;;13.80;;
76540;SDS011;65385;55.772;37.658;2023-09-12T05:30:53;22.48;;;13.77;;
76540;SDS011;65385;55.772;37.658;2023-09-12T05:31:54;26.60;;;14.98;;
76540;SDS011;65385;55.772;37.658;2023-09-12T05:32:55;22.40;;;14.35;;
76540;SDS011;65385;55.772;37.658;2023-09-12T05:33:55;25.65;;;15.20;;
76540;SDS011;65385;55.772;37.658;2023-09-12T05:34:56;24.67;;;15.02;;
76540;SDS011;65385;55.772;37.658;2023-09-12T05:35:57;27.02;;;16.48;;
76540;SDS011;65385;55.772;37.658;2023-09-12T05:36:58;26.33;;;15.35;;
76540;SDS011;65385;55.772;37.658;2023-09-12T05:37:59;24.52;;;14.82;;
76540;SDS011;65385;55.772;37.658;2023-09-12T05:38:59;24.60;;;15.02;;
76540;SDS011;65385;55.772;37.658;2023-09-12T05:40:00;22.35;;;14.18;;
76540;SDS011;65385;55.772;37.658;2023-09-12T05:41:01;25.58;;;15.38;;
76540;SDS011;65385;55.772;37.658;2023-09-12T05:42:02;22.92;;;13.57;;
76540;SDS011;65385;55.772;37.658;2023-09-12T05:43:03;25.40;;;14.43;;
76540;SDS011;65385;55.772;37.658;2023-09-12T05:44:04;22.95;;;14.20;;
76540;SDS011;65385;55.772;37.658;2023-09-12T05:45:05;23.08;;;14.25;;
76540;SDS011;65385;55.772;37.658;2023-09-12T05:46:07;23.80;;;14.73;;
76540;SDS011;65385;55.772;37.658;2023-09-12T05:47:07;24.27;;;15.20;;
76540;SDS011;65385;55.772;37.658;2023-09-12T05:48:08;23.58;;;14.32;;
76540;SDS011;65385;55.772;37.658;2023-09-12T05:49:10;22.42;;;13.50;;
76540;SDS011;65385;55.772;37.658;2023-09-12T05:50:11;19.90;;;12.82;;
76540;SDS011;65385;55.772;37.658;2023-09-12T05:51:12;22.50;;;13.85;;
76540;SDS011;65385;55.772;37.658;2023-09-12T05:52:12;23.30;;;14.27;;
76540;SDS011;65385;55.772;37.658;2023-09-12T05:53:13;22.30;;;13.25;;
76540;SDS011;65385;55.772;37.658;2023-09-12T05:54:14;21.52;;;13.80;;
76540;SDS011;65385;55.772;37.658;2023-09-12T05:55:16;25.08;;;15.35;;
76540;SDS011;65385;55.772;37.658;2023-09-12T05:56:17;23.05;;;13.93;;
76540;SDS011;65385;55.772;37.658;2023-09-12T05:57:17;23.05;;;14.55;;
76540;SDS011;65385;55.772;37.658;2023-09-12T05:58:18;24.98;;;14.80;;
76540;SDS011;65385;55.772;37.658;2023-09-12T05:59:18;24.13;;;14.23;;
76540;SDS011;65385;55.772;37.658;2023-09-12T06:00:20;24.92;;;14.73;;
76540;SDS011;65385;55.772;37.658;2023-09-12T06:01:21;26.83;;;15.23;;
76540;SDS011;65385;55.772;37.658;2023-09-12T06:02:22;25.33;;;14.93;;